SCIE 230500Z 21006KT CAVOK 12/10 Q1018